sensor_id;sensor_type;location;lat;lon;timestamp;temperature;humidity
44170;DHT22;29836;52.286;9.576;2023-05-14T00:01:30;10.10;99.90
44170;DHT22;29836;52.286;9.576;2023-05-14T00:03:56;9.90;99.90
44170;DHT22;29836;52.286;9.576;2023-05-14T00:06:21;9.90;99.90
44170;DHT22;29836;52.286;9.576;2023-05-14T00:08:47;10.20;99.90
44170;DHT22;29836;52.286;9.576;2023-05-14T00:11:12;10.50;99.90
44170;DHT22;29836;52.286;9.576;2023-05-14T00:13:38;10.60;99.90
44170;DHT22;29836;52.286;9.576;2023-05-14T00:16:04;10.60;99.90
44170;DHT22;29836;52.286;9.576;2023-05-14T00:18:29;10.50;99.90
44170;DHT22;29836;52.286;9.576;2023-05-14T00:20:55;10.40;99.90
44170;DHT22;29836;52.286;9.576;2023-05-14T00:23:21;10.30;99.90
44170;DHT22;29836;52.286;9.576;2023-05-14T00:25:47;10.10;99.90
44170;DHT22;29836;52.286;9.576;2023-05-14T00:28:12;9.90;99.90
44170;DHT22;29836;52.286;9.576;2023-05-14T00:30:38;9.60;99.90
44170;DHT22;29836;52.286;9.576;2023-05-14T00:33:06;9.40;99.90
44170;DHT22;29836;52.286;9.576;2023-05-14T00:35:32;9.10;99.90
44170;DHT22;29836;52.286;9.576;2023-05-14T00:38:01;8.80;99.90
44170;DHT22;29836;52.286;9.576;2023-05-14T00:40:27;8.90;99.90
44170;DHT22;29836;52.286;9.576;2023-05-14T00:42:54;8.90;99.90
44170;DHT22;29836;52.286;9.576;2023-05-14T00:45:20;8.90;99.90
44170;DHT22;29836;52.286;9.576;2023-05-14T00:47:47;9.00;99.90
44170;DHT22;29836;52.286;9.576;2023-05-14T00:50:13;9.00;99.90
44170;DHT22;29836;52.286;9.576;2023-05-14T00:52:39;9.00;99.90
44170;DHT22;29836;52.286;9.576;2023-05-14T00:55:06;8.90;99.90
44170;DHT22;29836;52.286;9.576;2023-05-14T00:57:33;8.90;99.90
44170;DHT22;29836;52.286;9.576;2023-05-14T00:59:59;8.90;99.90
44170;DHT22;29836;52.286;9.576;2023-05-14T01:02:25;8.80;99.90
44170;DHT22;29836;52.286;9.576;2023-05-14T01:04:51;8.90;99.90
44170;DHT22;29836;52.286;9.576;2023-05-14T01:07:31;9.00;99.90
44170;DHT22;29836;52.286;9.576;2023-05-14T01:12:55;9.30;99.90
44170;DHT22;29836;52.286;9.576;2023-05-14T01:15:27;9.30;99.90
44170;DHT22;29836;52.286;9.576;2023-05-14T01:18:03;9.30;99.90
44170;DHT22;29836;52.286;9.576;2023-05-14T01:20:28;9.30;99.90
44170;DHT22;29836;52.286;9.576;2023-05-14T01:22:54;9.20;99.90
44170;DHT22;29836;52.286;9.576;2023-05-14T01:25:20;9.10;99.90
44170;DHT22;29836;52.286;9.576;2023-05-14T01:30:43;9.00;99.90
44170;DHT22;29836;52.286;9.576;2023-05-14T01:33:13;9.00;99.90
44170;DHT22;29836;52.286;9.576;2023-05-14T01:35:38;9.10;99.90
44170;DHT22;29836;52.286;9.576;2023-05-14T01:38:06;9.30;99.90
44170;DHT22;29836;52.286;9.576;2023-05-14T01:40:34;9.40;99.90
44170;DHT22;29836;52.286;9.576;2023-05-14T01:43:01;9.40;99.90
44170;DHT22;29836;52.286;9.576;2023-05-14T01:45:27;9.30;99.90
44170;DHT22;29836;52.286;9.576;2023-05-14T01:47:54;9.20;99.90
44170;DHT22;29836;52.286;9.576;2023-05-14T01:50:19;9.10;99.90
44170;DHT22;29836;52.286;9.576;2023-05-14T01:52:45;8.90;99.90
44170;DHT22;29836;52.286;9.576;2023-05-14T01:55:12;8.80;99.90
44170;DHT22;29836;52.286;9.576;2023-05-14T01:57:38;8.70;99.90
44170;DHT22;29836;52.286;9.576;2023-05-14T02:00:05;8.70;99.90
44170;DHT22;29836;52.286;9.576;2023-05-14T02:02:31;8.60;99.90
44170;DHT22;29836;52.286;9.576;2023-05-14T02:04:56;8.50;99.90
44170;DHT22;29836;52.286;9.576;2023-05-14T02:07:22;8.40;99.90
44170;DHT22;29836;52.286;9.576;2023-05-14T02:09:47;8.40;99.90
44170;DHT22;29836;52.286;9.576;2023-05-14T02:12:13;8.40;99.90
44170;DHT22;29836;52.286;9.576;2023-05-14T02:14:38;8.30;99.90
44170;DHT22;29836;52.286;9.576;2023-05-14T02:17:04;8.30;99.90
44170;DHT22;29836;52.286;9.576;2023-05-14T02:19:30;8.30;99.90
44170;DHT22;29836;52.286;9.576;2023-05-14T02:21:55;8.20;99.90
44170;DHT22;29836;52.286;9.576;2023-05-14T02:24:21;8.10;99.90
44170;DHT22;29836;52.286;9.576;2023-05-14T02:26:46;8.20;99.90
44170;DHT22;29836;52.286;9.576;2023-05-14T02:29:12;8.20;99.90
44170;DHT22;29836;52.286;9.576;2023-05-14T02:31:38;8.10;99.90
44170;DHT22;29836;52.286;9.576;2023-05-14T02:34:04;8.20;99.90
44170;DHT22;29836;52.286;9.576;2023-05-14T02:36:31;8.10;99.90
44170;DHT22;29836;52.286;9.576;2023-05-14T02:38:57;8.10;99.90
44170;DHT22;29836;52.286;9.576;2023-05-14T02:41:23;8.00;99.90
44170;DHT22;29836;52.286;9.576;2023-05-14T02:43:49;8.00;99.90
44170;DHT22;29836;52.286;9.576;2023-05-14T02:46:14;8.00;99.90
44170;DHT22;29836;52.286;9.576;2023-05-14T02:48:40;8.10;99.90
44170;DHT22;29836;52.286;9.576;2023-05-14T02:51:06;8.10;99.90
44170;DHT22;29836;52.286;9.576;2023-05-14T02:53:32;8.00;99.90
44170;DHT22;29836;52.286;9.576;2023-05-14T02:55:57;8.00;99.90
44170;DHT22;29836;52.286;9.576;2023-05-14T02:58:23;8.00;99.90
44170;DHT22;29836;52.286;9.576;2023-05-14T03:00:48;8.00;99.90
44170;DHT22;29836;52.286;9.576;2023-05-14T03:03:14;8.00;99.90
44170;DHT22;29836;52.286;9.576;2023-05-14T03:05:39;7.90;99.90
44170;DHT22;29836;52.286;9.576;2023-05-14T03:08:05;8.00;99.90
44170;DHT22;29836;52.286;9.576;2023-05-14T03:10:31;8.00;99.90
44170;DHT22;29836;52.286;9.576;2023-05-14T03:12:57;8.00;99.90
44170;DHT22;29836;52.286;9.576;2023-05-14T03:15:22;7.90;99.90
44170;DHT22;29836;52.286;9.576;2023-05-14T03:17:48;7.90;99.90
44170;DHT22;29836;52.286;9.576;2023-05-14T03:20:13;7.90;99.90
44170;DHT22;29836;52.286;9.576;2023-05-14T03:22:39;7.90;99.90
44170;DHT22;29836;52.286;9.576;2023-05-14T03:25:05;8.00;99.90
44170;DHT22;29836;52.286;9.576;2023-05-14T03:27:31;8.00;99.90
44170;DHT22;29836;52.286;9.576;2023-05-14T03:29:57;8.00;99.90
44170;DHT22;29836;52.286;9.576;2023-05-14T03:32:23;8.00;99.90
44170;DHT22;29836;52.286;9.576;2023-05-14T03:34:48;8.00;99.90
44170;DHT22;29836;52.286;9.576;2023-05-14T03:37:14;7.90;99.90
44170;DHT22;29836;52.286;9.576;2023-05-14T03:39:39;7.90;99.90
44170;DHT22;29836;52.286;9.576;2023-05-14T03:42:05;8.10;99.90
44170;DHT22;29836;52.286;9.576;2023-05-14T03:44:30;8.10;99.90
44170;DHT22;29836;52.286;9.576;2023-05-14T03:46:56;8.20;99.90
44170;DHT22;29836;52.286;9.576;2023-05-14T03:49:21;8.20;99.90
44170;DHT22;29836;52.286;9.576;2023-05-14T03:51:47;8.20;99.90
44170;DHT22;29836;52.286;9.576;2023-05-14T03:54:12;8.30;99.90
44170;DHT22;29836;52.286;9.576;2023-05-14T03:56:38;8.30;99.90
44170;DHT22;29836;52.286;9.576;2023-05-14T03:59:03;8.30;99.90
44170;DHT22;29836;52.286;9.576;2023-05-14T04:01:29;8.30;99.90
44170;DHT22;29836;52.286;9.576;2023-05-14T04:03:54;8.30;99.90
44170;DHT22;29836;52.286;9.576;2023-05-14T04:06:20;8.20;99.90
44170;DHT22;29836;52.286;9.576;2023-05-14T04:08:45;8.20;99.90
44170;DHT22;29836;52.286;9.576;2023-05-14T04:11:11;8.20;99.90
44170;DHT22;29836;52.286;9.576;2023-05-14T04:13:36;8.20;99.90
44170;DHT22;29836;52.286;9.576;2023-05-14T04:16:02;8.20;99.90
44170;DHT22;29836;52.286;9.576;2023-05-14T04:18:28;8.20;99.90
44170;DHT22;29836;52.286;9.576;2023-05-14T04:20:53;8.20;99.90
44170;DHT22;29836;52.286;9.576;2023-05-14T04:23:20;8.40;99.90
44170;DHT22;29836;52.286;9.576;2023-05-14T04:25:45;8.50;99.90
44170;DHT22;29836;52.286;9.576;2023-05-14T04:28:11;8.60;99.90
44170;DHT22;29836;52.286;9.576;2023-05-14T04:30:36;8.60;99.90
44170;DHT22;29836;52.286;9.576;2023-05-14T04:33:02;8.70;99.90
44170;DHT22;29836;52.286;9.576;2023-05-14T04:35:28;8.70;99.90
44170;DHT22;29836;52.286;9.576;2023-05-14T04:37:53;8.70;99.90
44170;DHT22;29836;52.286;9.576;2023-05-14T04:40:19;8.90;99.90
44170;DHT22;29836;52.286;9.576;2023-05-14T04:42:44;9.00;99.90
44170;DHT22;29836;52.286;9.576;2023-05-14T04:45:10;9.10;99.90
44170;DHT22;29836;52.286;9.576;2023-05-14T04:47:37;9.20;99.90
44170;DHT22;29836;52.286;9.576;2023-05-14T04:50:03;9.30;99.90
44170;DHT22;29836;52.286;9.576;2023-05-14T04:52:29;9.30;99.90
44170;DHT22;29836;52.286;9.576;2023-05-14T04:54:54;9.40;99.90
44170;DHT22;29836;52.286;9.576;2023-05-14T04:57:21;9.40;99.90
44170;DHT22;29836;52.286;9.576;2023-05-14T04:59:46;9.50;99.90
44170;DHT22;29836;52.286;9.576;2023-05-14T05:02:12;9.60;99.90
44170;DHT22;29836;52.286;9.576;2023-05-14T05:04:38;9.60;99.90
44170;DHT22;29836;52.286;9.576;2023-05-14T05:07:03;9.70;99.90
44170;DHT22;29836;52.286;9.576;2023-05-14T05:09:30;9.70;99.90
44170;DHT22;29836;52.286;9.576;2023-05-14T05:11:56;9.80;99.90
44170;DHT22;29836;52.286;9.576;2023-05-14T05:14:22;9.90;99.90
44170;DHT22;29836;52.286;9.576;2023-05-14T05:16:47;9.90;99.90
44170;DHT22;29836;52.286;9.576;2023-05-14T05:19:13;10.00;99.90
44170;DHT22;29836;52.286;9.576;2023-05-14T05:21:38;10.10;99.90
44170;DHT22;29836;52.286;9.576;2023-05-14T05:24:06;10.10;99.90
44170;DHT22;29836;52.286;9.576;2023-05-14T05:26:31;10.20;99.90
44170;DHT22;29836;52.286;9.576;2023-05-14T05:28:57;10.20;99.90
44170;DHT22;29836;52.286;9.576;2023-05-14T05:31:22;10.30;99.90
44170;DHT22;29836;52.286;9.576;2023-05-14T05:33:48;10.30;99.90
44170;DHT22;29836;52.286;9.576;2023-05-14T05:36:14;10.40;99.90
44170;DHT22;29836;52.286;9.576;2023-05-14T05:38:39;10.60;99.90
44170;DHT22;29836;52.286;9.576;2023-05-14T05:41:05;10.70;99.90
44170;DHT22;29836;52.286;9.576;2023-05-14T05:43:30;10.80;99.90
44170;DHT22;29836;52.286;9.576;2023-05-14T05:45:58;10.90;99.90
44170;DHT22;29836;52.286;9.576;2023-05-14T05:48:24;11.00;99.90
44170;DHT22;29836;52.286;9.576;2023-05-14T05:50:49;11.10;99.90
44170;DHT22;29836;52.286;9.576;2023-05-14T05:53:15;11.20;99.90
44170;DHT22;29836;52.286;9.576;2023-05-14T05:55:41;11.30;99.90
44170;DHT22;29836;52.286;9.576;2023-05-14T05:58:07;11.40;99.90
44170;DHT22;29836;52.286;9.576;2023-05-14T06:00:32;11.50;99.90
44170;DHT22;29836;52.286;9.576;2023-05-14T06:02:58;11.70;99.90
44170;DHT22;29836;52.286;9.576;2023-05-14T06:05:24;11.80;99.90
44170;DHT22;29836;52.286;9.576;2023-05-14T06:07:50;11.90;99.90
44170;DHT22;29836;52.286;9.576;2023-05-14T06:10:16;12.00;99.90
44170;DHT22;29836;52.286;9.576;2023-05-14T06:12:41;12.10;99.90
44170;DHT22;29836;52.286;9.576;2023-05-14T06:15:07;12.30;99.90
44170;DHT22;29836;52.286;9.576;2023-05-14T06:17:33;12.40;99.90
44170;DHT22;29836;52.286;9.576;2023-05-14T06:19:58;12.60;99.90
44170;DHT22;29836;52.286;9.576;2023-05-14T06:22:24;12.70;99.90
44170;DHT22;29836;52.286;9.576;2023-05-14T06:24:49;12.80;99.90
44170;DHT22;29836;52.286;9.576;2023-05-14T06:27:15;12.90;99.90
44170;DHT22;29836;52.286;9.576;2023-05-14T06:29:40;13.10;99.90
44170;DHT22;29836;52.286;9.576;2023-05-14T06:32:06;13.20;99.90
44170;DHT22;29836;52.286;9.576;2023-05-14T06:34:32;13.30;99.90
44170;DHT22;29836;52.286;9.576;2023-05-14T06:36:58;13.50;99.90
44170;DHT22;29836;52.286;9.576;2023-05-14T06:39:24;13.60;99.90
44170;DHT22;29836;52.286;9.576;2023-05-14T06:41:50;13.70;99.90
44170;DHT22;29836;52.286;9.576;2023-05-14T06:44:18;13.80;99.90
44170;DHT22;29836;52.286;9.576;2023-05-14T06:46:43;14.00;99.90
44170;DHT22;29836;52.286;9.576;2023-05-14T06:49:09;14.10;99.90
44170;DHT22;29836;52.286;9.576;2023-05-14T06:51:34;14.20;99.90
44170;DHT22;29836;52.286;9.576;2023-05-14T06:54:00;14.40;99.90
44170;DHT22;29836;52.286;9.576;2023-05-14T06:56:25;14.70;99.90
44170;DHT22;29836;52.286;9.576;2023-05-14T06:58:51;15.10;99.90
44170;DHT22;29836;52.286;9.576;2023-05-14T07:01:16;15.50;99.90
44170;DHT22;29836;52.286;9.576;2023-05-14T07:03:42;15.60;99.90
44170;DHT22;29836;52.286;9.576;2023-05-14T07:06:08;15.60;99.90
44170;DHT22;29836;52.286;9.576;2023-05-14T07:08:33;15.60;99.90
44170;DHT22;29836;52.286;9.576;2023-05-14T07:10:59;15.60;99.90
44170;DHT22;29836;52.286;9.576;2023-05-14T07:13:25;15.50;99.90
44170;DHT22;29836;52.286;9.576;2023-05-14T07:15:53;15.40;99.90
44170;DHT22;29836;52.286;9.576;2023-05-14T07:18:21;15.40;99.90
44170;DHT22;29836;52.286;9.576;2023-05-14T07:20:46;15.50;99.90
44170;DHT22;29836;52.286;9.576;2023-05-14T07:23:12;15.60;99.90
44170;DHT22;29836;52.286;9.576;2023-05-14T07:25:38;15.70;99.90
44170;DHT22;29836;52.286;9.576;2023-05-14T07:28:03;15.70;99.90
44170;DHT22;29836;52.286;9.576;2023-05-14T07:30:29;15.70;99.90
44170;DHT22;29836;52.286;9.576;2023-05-14T07:32:54;15.80;99.90
44170;DHT22;29836;52.286;9.576;2023-05-14T07:35:20;15.90;99.90
44170;DHT22;29836;52.286;9.576;2023-05-14T07:37:46;16.10;99.90
44170;DHT22;29836;52.286;9.576;2023-05-14T07:40:11;16.30;99.90
44170;DHT22;29836;52.286;9.576;2023-05-14T07:42:37;16.60;99.90
44170;DHT22;29836;52.286;9.576;2023-05-14T07:45:03;16.70;99.90
44170;DHT22;29836;52.286;9.576;2023-05-14T07:47:29;16.70;99.90
44170;DHT22;29836;52.286;9.576;2023-05-14T07:49:56;16.70;99.90
44170;DHT22;29836;52.286;9.576;2023-05-14T07:52:22;16.60;99.90
44170;DHT22;29836;52.286;9.576;2023-05-14T07:54:48;16.70;99.90
44170;DHT22;29836;52.286;9.576;2023-05-14T07:57:14;16.60;99.90
44170;DHT22;29836;52.286;9.576;2023-05-14T07:59:40;16.60;99.90
44170;DHT22;29836;52.286;9.576;2023-05-14T08:02:06;16.60;99.90
44170;DHT22;29836;52.286;9.576;2023-05-14T08:04:34;16.60;99.90
44170;DHT22;29836;52.286;9.576;2023-05-14T08:07:00;16.60;99.90
44170;DHT22;29836;52.286;9.576;2023-05-14T08:09:25;17.00;99.90
44170;DHT22;29836;52.286;9.576;2023-05-14T08:11:51;17.50;99.90
44170;DHT22;29836;52.286;9.576;2023-05-14T08:14:17;17.60;99.90
44170;DHT22;29836;52.286;9.576;2023-05-14T08:16:42;17.60;99.90
44170;DHT22;29836;52.286;9.576;2023-05-14T08:19:08;17.60;99.90
44170;DHT22;29836;52.286;9.576;2023-05-14T08:21:33;17.70;99.90
44170;DHT22;29836;52.286;9.576;2023-05-14T08:23:59;17.90;99.90
44170;DHT22;29836;52.286;9.576;2023-05-14T08:26:25;17.90;99.90
44170;DHT22;29836;52.286;9.576;2023-05-14T08:28:52;17.90;99.90
44170;DHT22;29836;52.286;9.576;2023-05-14T08:31:17;17.80;99.90
44170;DHT22;29836;52.286;9.576;2023-05-14T08:33:43;17.80;99.90
44170;DHT22;29836;52.286;9.576;2023-05-14T08:36:08;17.70;99.90
44170;DHT22;29836;52.286;9.576;2023-05-14T08:38:34;17.80;99.90
44170;DHT22;29836;52.286;9.576;2023-05-14T08:41:00;17.80;99.90
44170;DHT22;29836;52.286;9.576;2023-05-14T08:43:34;17.90;99.90
44170;DHT22;29836;52.286;9.576;2023-05-14T08:46:02;18.10;99.90
44170;DHT22;29836;52.286;9.576;2023-05-14T08:48:32;18.40;99.90
44170;DHT22;29836;52.286;9.576;2023-05-14T08:50:59;18.60;99.90
44170;DHT22;29836;52.286;9.576;2023-05-14T08:53:25;18.90;99.90
44170;DHT22;29836;52.286;9.576;2023-05-14T08:55:50;19.30;99.90
44170;DHT22;29836;52.286;9.576;2023-05-14T08:58:18;20.40;99.90
44170;DHT22;29836;52.286;9.576;2023-05-14T09:00:44;21.80;99.40
44170;DHT22;29836;52.286;9.576;2023-05-14T09:03:10;22.70;96.80
44170;DHT22;29836;52.286;9.576;2023-05-14T09:05:36;24.00;89.20
44170;DHT22;29836;52.286;9.576;2023-05-14T09:08:02;24.00;82.30
44170;DHT22;29836;52.286;9.576;2023-05-14T09:10:28;24.20;83.80
44170;DHT22;29836;52.286;9.576;2023-05-14T09:12:53;24.10;79.20
44170;DHT22;29836;52.286;9.576;2023-05-14T09:15:19;24.00;78.90
44170;DHT22;29836;52.286;9.576;2023-05-14T09:17:45;24.10;78.50
44170;DHT22;29836;52.286;9.576;2023-05-14T09:20:12;25.00;78.50
44170;DHT22;29836;52.286;9.576;2023-05-14T09:22:39;25.10;78.40
44170;DHT22;29836;52.286;9.576;2023-05-14T09:25:06;25.90;75.60
44170;DHT22;29836;52.286;9.576;2023-05-14T09:27:34;26.10;79.80
44170;DHT22;29836;52.286;9.576;2023-05-14T09:30:04;26.30;72.30
44170;DHT22;29836;52.286;9.576;2023-05-14T09:32:57;26.40;70.90
44170;DHT22;29836;52.286;9.576;2023-05-14T09:35:23;25.40;76.90
44170;DHT22;29836;52.286;9.576;2023-05-14T09:37:51;25.20;75.70
44170;DHT22;29836;52.286;9.576;2023-05-14T09:40:19;25.50;74.60
44170;DHT22;29836;52.286;9.576;2023-05-14T09:42:45;25.90;69.40
44170;DHT22;29836;52.286;9.576;2023-05-14T09:45:12;25.10;70.30
44170;DHT22;29836;52.286;9.576;2023-05-14T09:47:38;24.70;75.00
44170;DHT22;29836;52.286;9.576;2023-05-14T09:50:04;25.30;75.20
44170;DHT22;29836;52.286;9.576;2023-05-14T09:52:30;25.60;73.10
44170;DHT22;29836;52.286;9.576;2023-05-14T09:54:56;24.70;76.70
44170;DHT22;29836;52.286;9.576;2023-05-14T09:57:21;24.00;76.20
44170;DHT22;29836;52.286;9.576;2023-05-14T09:59:47;23.60;77.80
44170;DHT22;29836;52.286;9.576;2023-05-14T10:02:25;23.20;78.70
44170;DHT22;29836;52.286;9.576;2023-05-14T10:04:56;23.00;77.50
44170;DHT22;29836;52.286;9.576;2023-05-14T10:07:28;23.40;77.50
44170;DHT22;29836;52.286;9.576;2023-05-14T10:10:01;22.70;77.10
44170;DHT22;29836;52.286;9.576;2023-05-14T10:12:31;22.80;77.00
44170;DHT22;29836;52.286;9.576;2023-05-14T10:15:00;22.60;76.90
44170;DHT22;29836;52.286;9.576;2023-05-14T10:17:30;22.20;78.70
44170;DHT22;29836;52.286;9.576;2023-05-14T10:19:57;22.30;73.30
44170;DHT22;29836;52.286;9.576;2023-05-14T10:22:30;23.10;76.40
44170;DHT22;29836;52.286;9.576;2023-05-14T10:24:58;24.00;80.40
44170;DHT22;29836;52.286;9.576;2023-05-14T10:27:24;25.10;70.80
44170;DHT22;29836;52.286;9.576;2023-05-14T10:29:54;25.90;71.40
44170;DHT22;29836;52.286;9.576;2023-05-14T10:32:22;26.50;68.80
44170;DHT22;29836;52.286;9.576;2023-05-14T10:34:49;27.20;67.50
44170;DHT22;29836;52.286;9.576;2023-05-14T10:37:21;27.70;64.70
44170;DHT22;29836;52.286;9.576;2023-05-14T10:39:56;27.00;65.50
44170;DHT22;29836;52.286;9.576;2023-05-14T10:42:25;27.50;65.00
44170;DHT22;29836;52.286;9.576;2023-05-14T10:44:55;27.60;64.00
44170;DHT22;29836;52.286;9.576;2023-05-14T10:47:23;28.50;63.60
44170;DHT22;29836;52.286;9.576;2023-05-14T10:49:52;28.10;64.50
44170;DHT22;29836;52.286;9.576;2023-05-14T10:52:19;28.20;61.60
44170;DHT22;29836;52.286;9.576;2023-05-14T10:55:04;27.80;59.20
44170;DHT22;29836;52.286;9.576;2023-05-14T10:57:36;27.80;64.30
44170;DHT22;29836;52.286;9.576;2023-05-14T11:00:02;28.80;60.60
44170;DHT22;29836;52.286;9.576;2023-05-14T11:02:33;30.10;52.60
44170;DHT22;29836;52.286;9.576;2023-05-14T11:05:00;31.10;51.80
44170;DHT22;29836;52.286;9.576;2023-05-14T11:07:37;31.80;57.60
44170;DHT22;29836;52.286;9.576;2023-05-14T11:10:05;32.10;54.30
44170;DHT22;29836;52.286;9.576;2023-05-14T11:12:31;32.00;53.60
44170;DHT22;29836;52.286;9.576;2023-05-14T11:14:58;31.60;50.50
44170;DHT22;29836;52.286;9.576;2023-05-14T11:17:29;30.70;54.50
44170;DHT22;29836;52.286;9.576;2023-05-14T11:19:55;29.80;54.80
44170;DHT22;29836;52.286;9.576;2023-05-14T11:22:21;30.20;51.80
44170;DHT22;29836;52.286;9.576;2023-05-14T11:24:47;29.80;52.50
44170;DHT22;29836;52.286;9.576;2023-05-14T11:27:13;29.60;51.90
44170;DHT22;29836;52.286;9.576;2023-05-14T11:29:45;28.80;54.60
44170;DHT22;29836;52.286;9.576;2023-05-14T11:32:12;28.50;52.50
44170;DHT22;29836;52.286;9.576;2023-05-14T11:34:38;28.20;55.40
44170;DHT22;29836;52.286;9.576;2023-05-14T11:37:05;28.00;55.80
44170;DHT22;29836;52.286;9.576;2023-05-14T11:39:31;27.80;58.10
44170;DHT22;29836;52.286;9.576;2023-05-14T11:41:58;27.40;58.00
44170;DHT22;29836;52.286;9.576;2023-05-14T11:44:23;27.00;58.40
44170;DHT22;29836;52.286;9.576;2023-05-14T11:46:56;26.30;58.80
44170;DHT22;29836;52.286;9.576;2023-05-14T11:49:23;26.60;55.60
44170;DHT22;29836;52.286;9.576;2023-05-14T11:51:55;26.00;58.30
44170;DHT22;29836;52.286;9.576;2023-05-14T11:54:21;25.50;60.90
44170;DHT22;29836;52.286;9.576;2023-05-14T11:56:50;25.60;65.80
44170;DHT22;29836;52.286;9.576;2023-05-14T11:59:16;25.50;61.40
44170;DHT22;29836;52.286;9.576;2023-05-14T12:01:44;25.20;63.10
44170;DHT22;29836;52.286;9.576;2023-05-14T12:04:12;25.20;62.10
44170;DHT22;29836;52.286;9.576;2023-05-14T12:06:38;25.40;61.40
44170;DHT22;29836;52.286;9.576;2023-05-14T12:09:04;26.60;60.40
44170;DHT22;29836;52.286;9.576;2023-05-14T12:11:31;27.40;56.70
44170;DHT22;29836;52.286;9.576;2023-05-14T12:14:00;26.90;60.40
44170;DHT22;29836;52.286;9.576;2023-05-14T12:16:29;26.60;59.50
44170;DHT22;29836;52.286;9.576;2023-05-14T12:19:01;26.70;58.40
44170;DHT22;29836;52.286;9.576;2023-05-14T12:21:27;26.50;55.90
44170;DHT22;29836;52.286;9.576;2023-05-14T12:23:59;26.70;56.80
44170;DHT22;29836;52.286;9.576;2023-05-14T12:26:25;27.00;57.00
44170;DHT22;29836;52.286;9.576;2023-05-14T12:28:58;27.10;56.10
44170;DHT22;29836;52.286;9.576;2023-05-14T12:31:31;27.40;54.30
44170;DHT22;29836;52.286;9.576;2023-05-14T12:33:56;26.70;56.80
44170;DHT22;29836;52.286;9.576;2023-05-14T12:36:22;26.70;57.50
44170;DHT22;29836;52.286;9.576;2023-05-14T12:38:49;27.10;55.40
44170;DHT22;29836;52.286;9.576;2023-05-14T12:41:15;27.60;54.70
44170;DHT22;29836;52.286;9.576;2023-05-14T12:43:42;27.10;55.60
44170;DHT22;29836;52.286;9.576;2023-05-14T12:46:08;26.50;59.70
44170;DHT22;29836;52.286;9.576;2023-05-14T12:48:33;26.30;59.90
44170;DHT22;29836;52.286;9.576;2023-05-14T12:50:59;27.30;53.70
44170;DHT22;29836;52.286;9.576;2023-05-14T12:53:24;27.90;50.70
44170;DHT22;29836;52.286;9.576;2023-05-14T12:55:50;27.60;53.10
44170;DHT22;29836;52.286;9.576;2023-05-14T12:58:16;27.70;57.30
44170;DHT22;29836;52.286;9.576;2023-05-14T13:00:41;27.90;53.20
44170;DHT22;29836;52.286;9.576;2023-05-14T13:03:07;28.80;49.00
44170;DHT22;29836;52.286;9.576;2023-05-14T13:05:32;29.00;50.50
44170;DHT22;29836;52.286;9.576;2023-05-14T13:07:59;28.80;49.60
44170;DHT22;29836;52.286;9.576;2023-05-14T13:10:24;28.00;55.50
44170;DHT22;29836;52.286;9.576;2023-05-14T13:12:50;27.10;52.40
44170;DHT22;29836;52.286;9.576;2023-05-14T13:15:17;27.30;54.20
44170;DHT22;29836;52.286;9.576;2023-05-14T13:17:42;27.40;53.30
44170;DHT22;29836;52.286;9.576;2023-05-14T13:20:08;27.80;53.40
44170;DHT22;29836;52.286;9.576;2023-05-14T13:22:34;28.30;52.20
44170;DHT22;29836;52.286;9.576;2023-05-14T13:25:00;28.70;50.40
44170;DHT22;29836;52.286;9.576;2023-05-14T13:27:25;29.10;51.60
44170;DHT22;29836;52.286;9.576;2023-05-14T13:29:51;29.00;52.50
44170;DHT22;29836;52.286;9.576;2023-05-14T13:32:17;28.30;52.30
44170;DHT22;29836;52.286;9.576;2023-05-14T13:34:42;27.50;54.50
44170;DHT22;29836;52.286;9.576;2023-05-14T13:37:08;27.10;55.60
44170;DHT22;29836;52.286;9.576;2023-05-14T13:39:34;27.00;56.50
44170;DHT22;29836;52.286;9.576;2023-05-14T13:41:59;26.90;56.20
44170;DHT22;29836;52.286;9.576;2023-05-14T13:44:25;26.70;55.20
44170;DHT22;29836;52.286;9.576;2023-05-14T13:46:51;26.80;51.20
44170;DHT22;29836;52.286;9.576;2023-05-14T13:49:17;26.80;54.50
44170;DHT22;29836;52.286;9.576;2023-05-14T13:51:42;26.80;55.00
44170;DHT22;29836;52.286;9.576;2023-05-14T13:54:08;26.60;53.30
44170;DHT22;29836;52.286;9.576;2023-05-14T13:56:34;26.70;56.90
44170;DHT22;29836;52.286;9.576;2023-05-14T13:58:59;26.80;56.90
44170;DHT22;29836;52.286;9.576;2023-05-14T14:01:25;26.00;56.10
44170;DHT22;29836;52.286;9.576;2023-05-14T14:03:50;26.00;54.90
44170;DHT22;29836;52.286;9.576;2023-05-14T14:06:16;26.30;55.90
44170;DHT22;29836;52.286;9.576;2023-05-14T14:08:41;26.00;56.50
44170;DHT22;29836;52.286;9.576;2023-05-14T14:11:07;26.20;55.00
44170;DHT22;29836;52.286;9.576;2023-05-14T14:13:33;26.00;54.00
44170;DHT22;29836;52.286;9.576;2023-05-14T14:15:58;26.10;55.10
44170;DHT22;29836;52.286;9.576;2023-05-14T14:18:24;26.60;53.10
44170;DHT22;29836;52.286;9.576;2023-05-14T14:20:49;27.20;53.20
44170;DHT22;29836;52.286;9.576;2023-05-14T14:23:15;27.50;52.10
44170;DHT22;29836;52.286;9.576;2023-05-14T14:25:41;26.70;56.50
44170;DHT22;29836;52.286;9.576;2023-05-14T14:28:06;26.10;56.20
44170;DHT22;29836;52.286;9.576;2023-05-14T14:30:32;26.80;52.30
44170;DHT22;29836;52.286;9.576;2023-05-14T14:32:57;27.10;54.60
44170;DHT22;29836;52.286;9.576;2023-05-14T14:35:25;26.80;52.30
44170;DHT22;29836;52.286;9.576;2023-05-14T14:37:51;26.60;53.40
44170;DHT22;29836;52.286;9.576;2023-05-14T14:40:18;25.90;57.40
44170;DHT22;29836;52.286;9.576;2023-05-14T14:42:44;24.80;56.50
44170;DHT22;29836;52.286;9.576;2023-05-14T14:45:10;23.30;58.90
44170;DHT22;29836;52.286;9.576;2023-05-14T14:47:36;22.20;64.60
44170;DHT22;29836;52.286;9.576;2023-05-14T14:50:01;21.10;63.70
44170;DHT22;29836;52.286;9.576;2023-05-14T14:52:27;20.40;66.90
44170;DHT22;29836;52.286;9.576;2023-05-14T14:54:53;20.10;70.00
44170;DHT22;29836;52.286;9.576;2023-05-14T14:57:20;19.70;67.60
44170;DHT22;29836;52.286;9.576;2023-05-14T14:59:46;19.50;68.20
44170;DHT22;29836;52.286;9.576;2023-05-14T15:02:12;19.50;67.90
44170;DHT22;29836;52.286;9.576;2023-05-14T15:04:37;19.60;70.60
44170;DHT22;29836;52.286;9.576;2023-05-14T15:07:04;19.60;68.60
44170;DHT22;29836;52.286;9.576;2023-05-14T15:09:30;19.60;67.90
44170;DHT22;29836;52.286;9.576;2023-05-14T15:11:56;19.60;71.10
44170;DHT22;29836;52.286;9.576;2023-05-14T15:14:21;19.70;71.00
44170;DHT22;29836;52.286;9.576;2023-05-14T15:16:47;19.70;73.40
44170;DHT22;29836;52.286;9.576;2023-05-14T15:19:13;19.50;68.20
44170;DHT22;29836;52.286;9.576;2023-05-14T15:21:38;19.30;70.70
44170;DHT22;29836;52.286;9.576;2023-05-14T15:24:04;19.20;70.10
44170;DHT22;29836;52.286;9.576;2023-05-14T15:26:30;19.00;70.40
44170;DHT22;29836;52.286;9.576;2023-05-14T15:28:55;19.00;70.50
44170;DHT22;29836;52.286;9.576;2023-05-14T15:31:23;18.90;72.30
44170;DHT22;29836;52.286;9.576;2023-05-14T15:33:48;19.00;72.70
44170;DHT22;29836;52.286;9.576;2023-05-14T15:36:14;19.20;70.10